AIB280 ZSAM-VHHX
Flight info
| Callsign | AIB280 |
|---|---|
| Flight time | N/A |
| Altitude | 34100 |
| Route | NUSPA9Z NUSPA W597 IKATA A470 BEBEM/N0476F341 A470 DOTMI/N0476F340 A470 MAGOG |
| Aircraft | B738/M-SDE2E3FGHIRWXY/LB1 |
Departure
| Time | 2026-05-04 21:03 |
|---|---|
| Airport | Xiamen Gaoqi International Airport (ZSAM) |
Arrival
| Time | N/A |
|---|---|
| Airport | Hong Kong International Airport Kai Tak (VHHX) |
| Time | Latitude | Longitude | Altitude | Speed | Heading |
|---|---|---|---|---|---|
| 2026-05-04 20:34 | 24.53787 | 118.12574 | 46 ft | 0 kts | 142° |
| 2026-05-04 21:01 | 24.53792 | 118.12570 | 53 ft | 6 kts | 142° |
| 2026-05-04 21:01 | 24.53868 | 118.12505 | 50 ft | 9 kts | 142° |
| 2026-05-04 21:01 | 24.53875 | 118.12494 | 48 ft | 11 kts | 164° |
| 2026-05-04 21:02 | 24.53710 | 118.12318 | 51 ft | 60 kts | 233° |
| 2026-05-04 21:02 | 24.53417 | 118.11898 | 53 ft | 53 kts | 236° |
| 2026-05-04 21:02 | 24.53452 | 118.11683 | 55 ft | 26 kts | 319° |
| 2026-05-04 21:02 | 24.53597 | 118.11620 | 54 ft | 24 kts | 43° |
| 2026-05-04 21:03 | 24.53737 | 118.11812 | 50 ft | 59 kts | 52° |
| 2026-05-04 21:03 | 24.54140 | 118.12378 | 50 ft | 127 kts | 54° |
| 2026-05-04 21:03 | 24.54808 | 118.13293 | 162 ft | 168 kts | 50° |
| 2026-05-04 21:03 | 24.55513 | 118.14256 | 1040 ft | 157 kts | 50° |
| 2026-05-04 21:04 | 24.56171 | 118.15183 | 1899 ft | 154 kts | 51° |
| 2026-05-04 21:04 | 24.56875 | 118.16178 | 2207 ft | 183 kts | 52° |
| 2026-05-04 21:04 | 24.57705 | 118.17348 | 2553 ft | 202 kts | 52° |
| 2026-05-04 21:04 | 24.58510 | 118.18679 | 2931 ft | 222 kts | 71° |
| 2026-05-04 21:05 | 24.58512 | 118.20449 | 3236 ft | 248 kts | 107° |
| 2026-05-04 21:05 | 24.57596 | 118.22105 | 3783 ft | 263 kts | 134° |
| 2026-05-04 21:05 | 24.56019 | 118.23170 | 4492 ft | 270 kts | 164° |
| 2026-05-04 21:05 | 24.54168 | 118.23252 | 5271 ft | 268 kts | 197° |
| 2026-05-04 21:06 | 24.52595 | 118.22244 | 6100 ft | 261 kts | 226° |
| 2026-05-04 21:06 | 24.51363 | 118.20808 | 6972 ft | 258 kts | 230° |
| 2026-05-04 21:06 | 24.50176 | 118.19337 | 7629 ft | 262 kts | 231° |
| 2026-05-04 21:06 | 24.48962 | 118.17822 | 8373 ft | 263 kts | 231° |
| 2026-05-04 21:07 | 24.47747 | 118.16314 | 9140 ft | 265 kts | 231° |
| 2026-05-04 21:07 | 24.46510 | 118.14793 | 9830 ft | 269 kts | 230° |
| 2026-05-04 21:07 | 24.45251 | 118.13254 | 10421 ft | 276 kts | 230° |
| 2026-05-04 21:07 | 24.43878 | 118.11664 | 10611 ft | 298 kts | 228° |
| 2026-05-04 21:08 | 24.42381 | 118.10017 | 10754 ft | 319 kts | 227° |
| 2026-05-04 21:08 | 24.40752 | 118.08248 | 10900 ft | 338 kts | 227° |
| 2026-05-04 21:08 | 24.39034 | 118.06387 | 11039 ft | 355 kts | 227° |
| 2026-05-04 21:08 | 24.37246 | 118.04449 | 11271 ft | 366 kts | 226° |
| 2026-05-04 21:09 | 24.35414 | 118.02458 | 11611 ft | 373 kts | 227° |
| 2026-05-04 21:09 | 24.33569 | 118.00452 | 12167 ft | 373 kts | 227° |
| 2026-05-04 21:09 | 24.31744 | 117.98466 | 12715 ft | 375 kts | 227° |
| 2026-05-04 21:09 | 24.29898 | 117.96389 | 13240 ft | 376 kts | 228° |
| 2026-05-04 21:10 | 24.28050 | 117.94340 | 13702 ft | 381 kts | 227° |
| 2026-05-04 21:10 | 24.26180 | 117.92318 | 14154 ft | 384 kts | 226° |
| 2026-05-04 21:10 | 24.24271 | 117.90262 | 14643 ft | 385 kts | 227° |
| 2026-05-04 21:10 | 24.22362 | 117.88201 | 15135 ft | 386 kts | 227° |
| 2026-05-04 21:11 | 24.20445 | 117.86124 | 15605 ft | 388 kts | 227° |
| 2026-05-04 21:11 | 24.18521 | 117.84036 | 16063 ft | 390 kts | 227° |
| 2026-05-04 21:11 | 24.16591 | 117.81939 | 16529 ft | 392 kts | 227° |
| 2026-05-04 21:11 | 24.14643 | 117.79820 | 16966 ft | 394 kts | 227° |
| 2026-05-04 21:12 | 24.12694 | 117.77699 | 17383 ft | 396 kts | 228° |
| 2026-05-04 21:12 | 24.10732 | 117.75565 | 17778 ft | 399 kts | 228° |
| 2026-05-04 21:12 | 24.08756 | 117.73416 | 18169 ft | 401 kts | 228° |
| 2026-05-04 21:12 | 24.06771 | 117.71258 | 18515 ft | 404 kts | 228° |
| 2026-05-04 21:13 | 24.04772 | 117.69086 | 18855 ft | 405 kts | 228° |
| 2026-05-04 21:13 | 24.02771 | 117.66913 | 19193 ft | 407 kts | 228° |
| 2026-05-04 21:13 | 24.00757 | 117.64726 | 19524 ft | 408 kts | 228° |
| 2026-05-04 21:13 | 23.98765 | 117.62564 | 19826 ft | 410 kts | 228° |
| 2026-05-04 21:14 | 23.96710 | 117.60337 | 20171 ft | 411 kts | 228° |
| 2026-05-04 21:14 | 23.94703 | 117.58162 | 20493 ft | 412 kts | 228° |
| 2026-05-04 21:14 | 23.92662 | 117.55951 | 20784 ft | 414 kts | 228° |
| 2026-05-04 21:14 | 23.90612 | 117.53730 | 21058 ft | 415 kts | 228° |
| 2026-05-04 21:15 | 23.88542 | 117.51490 | 21265 ft | 419 kts | 228° |
| 2026-05-04 21:15 | 23.86467 | 117.49244 | 21540 ft | 421 kts | 228° |
| 2026-05-04 21:15 | 23.84384 | 117.46992 | 21861 ft | 421 kts | 228° |
| 2026-05-04 21:15 | 23.82309 | 117.44749 | 22226 ft | 420 kts | 228° |
| 2026-05-04 21:16 | 23.80226 | 117.42499 | 22494 ft | 421 kts | 228° |
| 2026-05-04 21:16 | 23.78133 | 117.40239 | 22727 ft | 423 kts | 228° |
| 2026-05-04 21:16 | 23.76035 | 117.37975 | 22958 ft | 425 kts | 228° |
| 2026-05-04 21:16 | 23.73929 | 117.35703 | 23204 ft | 426 kts | 228° |
| 2026-05-04 21:17 | 23.71814 | 117.33422 | 23445 ft | 427 kts | 228° |
| 2026-05-04 21:17 | 23.69720 | 117.31165 | 23655 ft | 429 kts | 228° |
| 2026-05-04 21:17 | 23.67593 | 117.28874 | 23841 ft | 430 kts | 228° |
| 2026-05-04 21:17 | 23.65458 | 117.26575 | 23933 ft | 433 kts | 228° |
| 2026-05-04 21:18 | 23.63306 | 117.24258 | 24075 ft | 435 kts | 227° |
| 2026-05-04 21:18 | 23.61156 | 117.21945 | 24291 ft | 435 kts | 228° |
| 2026-05-04 21:18 | 23.59000 | 117.19629 | 24501 ft | 435 kts | 228° |
| 2026-05-04 21:18 | 23.56841 | 117.17309 | 24685 ft | 435 kts | 228° |
| 2026-05-04 21:19 | 23.54690 | 117.14999 | 24942 ft | 434 kts | 228° |
| 2026-05-04 21:19 | 23.52542 | 117.12695 | 25141 ft | 434 kts | 228° |
| 2026-05-04 21:19 | 23.50388 | 117.10382 | 25281 ft | 435 kts | 228° |
| 2026-05-04 21:19 | 23.48229 | 117.08066 | 25414 ft | 437 kts | 228° |
| 2026-05-04 21:20 | 23.46084 | 117.05766 | 25574 ft | 437 kts | 228° |
| 2026-05-04 21:20 | 23.43884 | 117.03408 | 25752 ft | 438 kts | 228° |
| 2026-05-04 21:20 | 23.41705 | 117.01075 | 25773 ft | 442 kts | 227° |
| 2026-05-04 21:20 | 23.39531 | 116.98747 | 25826 ft | 445 kts | 227° |
| 2026-05-04 21:21 | 23.37317 | 116.96377 | 25950 ft | 446 kts | 227° |
| 2026-05-04 21:21 | 23.35100 | 116.94007 | 26122 ft | 446 kts | 227° |
| 2026-05-04 21:21 | 23.32891 | 116.91647 | 26352 ft | 444 kts | 227° |
| 2026-05-04 21:21 | 23.30685 | 116.89293 | 26596 ft | 442 kts | 227° |
| 2026-05-04 21:22 | 23.28492 | 116.86951 | 26817 ft | 442 kts | 227° |
| 2026-05-04 21:22 | 23.27038 | 116.85400 | 26954 ft | 441 kts | 228° |
| 2026-05-04 21:22 | 23.24845 | 116.83059 | 27165 ft | 441 kts | 228° |
| 2026-05-04 21:22 | 23.22663 | 116.80732 | 27408 ft | 439 kts | 228° |
| 2026-05-04 21:23 | 23.20479 | 116.78405 | 27663 ft | 438 kts | 228° |
| 2026-05-04 21:23 | 23.18302 | 116.76086 | 27811 ft | 439 kts | 228° |
| 2026-05-04 21:23 | 23.16112 | 116.73752 | 27879 ft | 442 kts | 228° |
| 2026-05-04 21:23 | 23.13909 | 116.71405 | 28071 ft | 442 kts | 228° |
| 2026-05-04 21:24 | 23.11713 | 116.69070 | 28370 ft | 439 kts | 228° |
| 2026-05-04 21:24 | 23.09538 | 116.66759 | 28681 ft | 437 kts | 228° |
| 2026-05-04 21:24 | 23.07386 | 116.64473 | 28964 ft | 436 kts | 229° |
| 2026-05-04 21:24 | 23.05221 | 116.62172 | 29224 ft | 435 kts | 229° |
| 2026-05-04 21:25 | 23.03061 | 116.59879 | 29495 ft | 434 kts | 229° |
| 2026-05-04 21:25 | 23.00897 | 116.57582 | 29792 ft | 433 kts | 229° |
| 2026-05-04 21:25 | 22.98747 | 116.55302 | 30132 ft | 430 kts | 229° |
| 2026-05-04 21:25 | 22.96615 | 116.53043 | 30453 ft | 428 kts | 229° |
| 2026-05-04 21:26 | 22.94486 | 116.50786 | 30665 ft | 428 kts | 229° |
| 2026-05-04 21:26 | 22.92350 | 116.48522 | 30823 ft | 429 kts | 229° |
| 2026-05-04 21:26 | 22.90210 | 116.46254 | 31014 ft | 429 kts | 229° |
| 2026-05-04 21:26 | 22.88070 | 116.43989 | 31256 ft | 429 kts | 229° |
| 2026-05-04 21:27 | 22.85961 | 116.41759 | 31491 ft | 428 kts | 230° |
| 2026-05-04 21:27 | 22.83826 | 116.39501 | 31711 ft | 428 kts | 230° |
| 2026-05-04 21:27 | 22.81692 | 116.37245 | 31937 ft | 428 kts | 230° |
| 2026-05-04 21:27 | 22.79559 | 116.34991 | 32167 ft | 427 kts | 230° |
| 2026-05-04 21:28 | 22.77431 | 116.32745 | 32395 ft | 427 kts | 230° |
| 2026-05-04 21:28 | 22.75303 | 116.30499 | 32618 ft | 427 kts | 230° |
| 2026-05-04 21:28 | 22.73168 | 116.28247 | 32853 ft | 427 kts | 230° |
| 2026-05-04 21:28 | 22.71071 | 116.26034 | 33041 ft | 427 kts | 230° |
| 2026-05-04 21:29 | 22.68938 | 116.23786 | 33189 ft | 429 kts | 230° |
| 2026-05-04 21:29 | 22.66793 | 116.21525 | 33357 ft | 430 kts | 230° |
| 2026-05-04 21:29 | 22.64646 | 116.19264 | 33521 ft | 431 kts | 230° |
| 2026-05-04 21:29 | 22.62494 | 116.16999 | 33712 ft | 431 kts | 230° |
| 2026-05-04 21:30 | 22.60348 | 116.14742 | 33948 ft | 430 kts | 230° |
| 2026-05-04 21:30 | 22.58203 | 116.12487 | 34126 ft | 429 kts | 230° |
| 2026-05-04 21:30 | 22.53901 | 116.07966 | 34135 ft | 431 kts | 230° |
| 2026-05-04 21:31 | 22.47461 | 116.01207 | 34134 ft | 429 kts | 230° |
| 2026-05-04 21:32 | 22.43181 | 115.96719 | 34127 ft | 428 kts | 229° |
| 2026-05-04 21:32 | 22.38920 | 115.92253 | 34131 ft | 429 kts | 230° |
| 2026-05-04 21:33 | 22.34625 | 115.87756 | 34134 ft | 430 kts | 230° |
| 2026-05-04 21:33 | 22.30827 | 115.82891 | 34137 ft | 418 kts | 247° |
| 2026-05-04 21:34 | 22.29286 | 115.76942 | 34128 ft | 412 kts | 267° |
| 2026-05-04 21:34 | 22.29064 | 115.70758 | 34125 ft | 412 kts | 269° |
| 2026-05-04 21:34 | 22.28989 | 115.67645 | 33898 ft | 415 kts | 269° |
| 2026-05-04 21:35 | 22.28906 | 115.64541 | 33643 ft | 412 kts | 268° |
| 2026-05-04 21:35 | 22.28811 | 115.61458 | 33363 ft | 408 kts | 268° |
| 2026-05-04 21:35 | 22.28714 | 115.58521 | 30479 ft | 392 kts | 269° |
| 2026-05-04 21:35 | 22.28690 | 115.55210 | 24606 ft | 488 kts | 268° |
| 2026-05-04 21:36 | 22.28633 | 115.51368 | 21943 ft | 510 kts | 269° |
| 2026-05-04 21:36 | 22.28632 | 115.47710 | 20658 ft | 471 kts | 268° |
| 2026-05-04 21:36 | 22.28587 | 115.44118 | 18511 ft | 488 kts | 268° |
| 2026-05-04 21:36 | 22.28513 | 115.40602 | 18655 ft | 442 kts | 267° |
| 2026-05-04 21:37 | 22.28409 | 115.37422 | 18631 ft | 407 kts | 264° |
| 2026-05-04 21:37 | 22.28130 | 115.34409 | 18385 ft | 403 kts | 262° |
| 2026-05-04 21:37 | 22.27835 | 115.31377 | 18132 ft | 407 kts | 263° |
| 2026-05-04 21:37 | 22.27603 | 115.28322 | 17874 ft | 411 kts | 265° |
| 2026-05-04 21:38 | 22.27431 | 115.25211 | 17623 ft | 417 kts | 266° |
| 2026-05-04 21:38 | 22.27298 | 115.22086 | 17360 ft | 413 kts | 266° |
| 2026-05-04 21:38 | 22.27183 | 115.19045 | 17108 ft | 407 kts | 266° |
| 2026-05-04 21:38 | 22.27065 | 115.15995 | 16858 ft | 406 kts | 266° |
| 2026-05-04 21:39 | 22.26876 | 115.12958 | 16604 ft | 406 kts | 261° |
| 2026-05-04 21:39 | 22.26391 | 115.09962 | 16364 ft | 404 kts | 257° |
| 2026-05-04 21:39 | 22.25798 | 115.06997 | 16126 ft | 403 kts | 257° |
| 2026-05-04 21:39 | 22.25199 | 115.04037 | 15881 ft | 402 kts | 257° |
| 2026-05-04 21:40 | 22.24629 | 115.01088 | 15643 ft | 400 kts | 258° |
| 2026-05-04 21:40 | 22.24087 | 114.98134 | 15399 ft | 401 kts | 258° |
| 2026-05-04 21:40 | 22.23560 | 114.95207 | 15170 ft | 402 kts | 258° |
| 2026-05-04 21:40 | 22.23067 | 114.92243 | 14936 ft | 402 kts | 262° |
| 2026-05-04 21:41 | 22.22894 | 114.89235 | 14700 ft | 402 kts | 268° |
| 2026-05-04 21:41 | 22.22896 | 114.86218 | 14472 ft | 401 kts | 269° |
| 2026-05-04 21:41 | 22.22936 | 114.83206 | 14239 ft | 401 kts | 269° |
| 2026-05-04 21:41 | 22.22963 | 114.80203 | 14019 ft | 399 kts | 269° |
| 2026-05-04 21:42 | 22.22966 | 114.77231 | 13782 ft | 391 kts | 268° |
| 2026-05-04 21:42 | 22.22949 | 114.74329 | 13514 ft | 380 kts | 268° |
| 2026-05-04 21:42 | 22.22921 | 114.71521 | 13257 ft | 368 kts | 268° |
| 2026-05-04 21:42 | 22.22889 | 114.68797 | 12987 ft | 357 kts | 268° |
| 2026-05-04 21:43 | 22.22855 | 114.66149 | 12730 ft | 347 kts | 268° |
| 2026-05-04 21:43 | 22.22823 | 114.63573 | 12474 ft | 339 kts | 268° |
| 2026-05-04 21:43 | 22.22792 | 114.61093 | 12230 ft | 330 kts | 267° |
| 2026-05-04 21:43 | 22.22760 | 114.58639 | 11974 ft | 323 kts | 267° |
| 2026-05-04 21:44 | 22.22729 | 114.56241 | 11730 ft | 316 kts | 267° |
| 2026-05-04 21:44 | 22.22699 | 114.53887 | 11481 ft | 310 kts | 268° |
| 2026-05-04 21:44 | 22.22669 | 114.51585 | 11242 ft | 304 kts | 267° |
| 2026-05-04 21:44 | 22.22639 | 114.49323 | 11004 ft | 299 kts | 267° |
| 2026-05-04 21:45 | 22.22609 | 114.47092 | 10759 ft | 294 kts | 267° |
| 2026-05-04 21:45 | 22.22580 | 114.44897 | 10526 ft | 290 kts | 266° |
| 2026-05-04 21:45 | 22.22550 | 114.42738 | 10294 ft | 285 kts | 266° |
| 2026-05-04 21:45 | 22.22520 | 114.40614 | 10056 ft | 282 kts | 268° |
| 2026-05-04 21:46 | 22.22491 | 114.38507 | 9832 ft | 279 kts | 268° |
| 2026-05-04 21:46 | 22.22459 | 114.36403 | 9581 ft | 284 kts | 268° |
| 2026-05-04 21:46 | 22.22426 | 114.34156 | 9380 ft | 317 kts | 268° |
| 2026-05-04 21:46 | 22.22390 | 114.31688 | 9153 ft | 347 kts | 268° |
| 2026-05-04 21:47 | 22.22351 | 114.29040 | 8892 ft | 356 kts | 268° |
| 2026-05-04 21:47 | 22.22313 | 114.26381 | 8644 ft | 354 kts | 269° |
| 2026-05-04 21:47 | 22.22274 | 114.23738 | 8382 ft | 351 kts | 269° |
| 2026-05-04 21:47 | 22.22235 | 114.21103 | 8140 ft | 352 kts | 269° |
| 2026-05-04 21:48 | 22.22195 | 114.18438 | 8035 ft | 356 kts | 269° |
| 2026-05-04 21:48 | 22.22155 | 114.15776 | 7999 ft | 351 kts | 268° |
| 2026-05-04 21:48 | 22.22115 | 114.13162 | 8003 ft | 349 kts | 269° |
| 2026-05-04 21:48 | 22.22075 | 114.10518 | 8016 ft | 358 kts | 269° |
| 2026-05-04 21:49 | 22.22032 | 114.07791 | 8003 ft | 366 kts | 269° |
| 2026-05-04 21:49 | 22.21987 | 114.05051 | 7992 ft | 364 kts | 268° |
| 2026-05-04 21:49 | 22.21941 | 114.02328 | 7932 ft | 363 kts | 268° |
| 2026-05-04 21:49 | 22.21860 | 113.99607 | 7444 ft | 363 kts | 268° |
| 2026-05-04 21:50 | 22.21765 | 113.96938 | 7031 ft | 359 kts | 268° |
| 2026-05-04 21:50 | 22.21671 | 113.94262 | 6614 ft | 353 kts | 268° |
| 2026-05-04 21:50 | 22.21583 | 113.91646 | 6194 ft | 345 kts | 268° |
| 2026-05-04 21:50 | 22.21565 | 113.89092 | 5859 ft | 331 kts | 276° |
| 2026-05-04 21:51 | 22.22278 | 113.86824 | 5592 ft | 312 kts | 301° |
| 2026-05-04 21:51 | 22.23645 | 113.85105 | 5404 ft | 296 kts | 318° |
| 2026-05-04 21:51 | 22.25323 | 113.83901 | 5190 ft | 283 kts | 332° |
| 2026-05-04 21:51 | 22.27170 | 113.83428 | 5160 ft | 268 kts | 360° |
| 2026-05-04 21:52 | 22.28941 | 113.83850 | 5026 ft | 258 kts | 21° |
| 2026-05-04 21:52 | 22.30437 | 113.84798 | 4862 ft | 248 kts | 39° |
| 2026-05-04 21:52 | 22.31377 | 113.86282 | 4848 ft | 241 kts | 73° |
| 2026-05-04 21:52 | 22.31617 | 113.88062 | 4866 ft | 237 kts | 88° |
| 2026-05-04 21:53 | 22.31639 | 113.89809 | 4776 ft | 227 kts | 90° |
| 2026-05-04 21:53 | 22.31643 | 113.91475 | 4628 ft | 215 kts | 90° |
| 2026-05-04 21:53 | 22.31654 | 113.93075 | 4486 ft | 209 kts | 89° |
| 2026-05-04 21:53 | 22.31777 | 113.94669 | 3945 ft | 217 kts | 89° |
| 2026-05-04 21:54 | 22.31779 | 113.96291 | 3593 ft | 213 kts | 89° |
| 2026-05-04 21:54 | 22.31834 | 113.97832 | 3471 ft | 196 kts | 88° |
| 2026-05-04 21:54 | 22.31940 | 113.99252 | 3443 ft | 188 kts | 86° |
| 2026-05-04 21:54 | 22.32063 | 114.00710 | 3320 ft | 202 kts | 86° |
| 2026-05-04 21:55 | 22.32184 | 114.02213 | 3073 ft | 199 kts | 86° |
| 2026-05-04 21:55 | 22.32279 | 114.03700 | 2803 ft | 197 kts | 87° |
| 2026-05-04 21:55 | 22.32387 | 114.05122 | 2557 ft | 188 kts | 88° |
| 2026-05-04 21:55 | 22.32488 | 114.06523 | 2316 ft | 179 kts | 87° |
| 2026-05-04 21:56 | 22.32578 | 114.07803 | 2104 ft | 164 kts | 86° |
| 2026-05-04 21:56 | 22.32661 | 114.08995 | 1922 ft | 156 kts | 86° |
| 2026-05-04 21:56 | 22.32740 | 114.10160 | 1744 ft | 156 kts | 87° |
| 2026-05-04 21:56 | 22.32814 | 114.11294 | 1615 ft | 146 kts | 87° |
| 2026-05-04 21:57 | 22.32885 | 114.12373 | 1528 ft | 145 kts | 86° |
| 2026-05-04 21:57 | 22.32957 | 114.13472 | 1529 ft | 144 kts | 88° |
| 2026-05-04 21:57 | 22.33020 | 114.14540 | 1324 ft | 145 kts | 86° |
| 2026-05-04 21:57 | 22.33096 | 114.15629 | 1000 ft | 147 kts | 85° |
| 2026-05-04 21:58 | 22.33152 | 114.16717 | 663 ft | 145 kts | 87° |
| 2026-05-04 21:58 | 22.33171 | 114.17775 | 501 ft | 141 kts | 92° |
| 2026-05-04 21:58 | 22.32862 | 114.18831 | 323 ft | 158 kts | 123° |
| 2026-05-04 21:58 | 22.32117 | 114.19697 | 49 ft | 150 kts | 130° |
| 2026-05-04 21:59 | 22.31466 | 114.20449 | 33 ft | 115 kts | 133° |
| 2026-05-04 21:59 | 22.31108 | 114.20846 | 33 ft | 51 kts | 134° |